Time;durP1;ratioP1;P1;durP2;ratioP2;P2;SDS_P1;SDS_P2;PMS_P1;PMS_P2;Temp;Humidity;BMP_temperature;BMP_pressure;BME280_temperature;BME280_humidity;BME280_pressure;Samples;Min_cycle;Max_cycle;Signal;HPM_P1;HPM_P2
2024/01/11 00:01:09;;;;;;;;;;;;;;;;;;5094629;28;19920;-70
2024/01/11 00:03:36;;;;;;;;;;;;;;;;;;5094315;28;20378;-70
2024/01/11 00:06:04;;;;;;;;;;;;;;;;;;5094438;28;19981;-69
2024/01/11 00:08:30;;;;;;;;;;;;;;;;;;5093078;28;19920;-69
2024/01/11 00:10:56;;;;;;;;;;;;;;;;;;5096197;28;20382;-70
2024/01/11 00:13:22;;;;;;;;;;;;;;;;;;5094232;28;20334;-69
2024/01/11 00:15:48;;;;;;;;;;;;;;;;;;5094239;28;19989;-69
2024/01/11 00:18:15;;;;;;;;;;;;;;;;;;5094112;28;19920;-69
2024/01/11 00:20:41;;;;;;;;;;;;;;;;;;5094339;28;19928;-70
2024/01/11 00:23:07;;;;;;;;;;;;;;;;;;5094752;28;19924;-69
2024/01/11 00:25:33;;;;;;;;;;;;;;;;;;5094424;28;19972;-70
2024/01/11 00:28:01;;;;;;;;;;;;;;;;;;5094602;28;19973;-69
2024/01/11 00:30:27;;;;;;;;;;;;;;;;;;5094642;28;20290;-71
2024/01/11 00:32:54;;;;;;;;;;;;;;;;;;5094416;28;19991;-71
2024/01/11 00:35:20;;;;;;;;;;;;;;;;;;5094500;28;20051;-70
2024/01/11 00:37:46;;;;;;;;;;;;;;;;;;5094273;28;19973;-70
2024/01/11 00:40:12;;;;;;;;;;;;;;;;;;5094442;28;19920;-71
2024/01/11 00:42:39;;;;;;;;;;;;;;;;;;5102557;28;19924;-71
2024/01/11 00:45:05;;;;;;;;;;;;;;;;;;5104729;28;19924;-70
2024/01/11 00:47:31;;;;;;;;;;;;;;;;;;5114626;28;19927;-70
2024/01/11 00:49:57;;;;;;;;;;;;;;;;;;5114453;28;19972;-71
2024/01/11 00:52:23;;;;;;;;;;;;;;;;;;5114621;28;19965;-70
2024/01/11 00:54:50;;;;;;;;;;;;;;;;;;5114415;28;19919;-70
2024/01/11 00:57:16;;;;;;;;;;;;;;;;;;5114211;28;19924;-71
2024/01/11 00:59:42;;;;;;;;;;;;;;;;;;5101284;28;20366;-70
2024/01/11 01:02:08;;;;;;;;;;;;;;;;;;5094025;28;20366;-70
2024/01/11 01:04:35;;;;;;;;;;;;;;;;;;5093784;28;20336;-70
2024/01/11 01:07:01;;;;;;;;;;;;;;;;;;5094031;28;20303;-72
2024/01/11 01:09:27;;;;;;;;;;;;;;;;;;5093309;28;19920;-71
2024/01/11 01:11:53;;;;;;;;;;;;;;;;;;5093804;28;19993;-71
2024/01/11 01:14:20;;;;;;;;;;;;;;;;;;5093171;28;19973;-71
2024/01/11 01:16:46;;;;;;;;;;;;;;;;;;5092228;28;19924;-72
2024/01/11 01:19:12;;;;;;;;;;;;;;;;;;5093751;28;19920;-70
2024/01/11 01:21:38;;;;;;;;;;;;;;;;;;5093592;28;19920;-71
2024/01/11 01:24:05;;;;;;;;;;;;;;;;;;5093573;28;19973;-71
2024/01/11 01:26:31;;;;;;;;;;;;;;;;;;5093486;28;19982;-71
2024/01/11 01:28:57;;;;;;;;;;;;;;;;;;5093353;28;19985;-71
2024/01/11 01:31:23;;;;;;;;;;;;;;;;;;5092559;28;20377;-70
2024/01/11 01:33:50;;;;;;;;;;;;;;;;;;5102291;28;19981;-71
2024/01/11 01:36:16;;;;;;;;;;;;;;;;;;5093519;28;19924;-71
2024/01/11 01:38:42;;;;;;;;;;;;;;;;;;5093028;28;19920;-71
2024/01/11 01:41:08;;;;;;;;;;;;;;;;;;5093391;28;19924;-71
2024/01/11 01:43:35;;;;;;;;;;;;;;;;;;5093114;28;19966;-70
2024/01/11 01:46:01;;;;;;;;;;;;;;;;;;5093178;28;19950;-71
2024/01/11 01:48:27;;;;;;;;;;;;;;;;;;5097455;28;19919;-71
2024/01/11 01:50:53;;;;;;;;;;;;;;;;;;5113418;28;19928;-71
2024/01/11 01:53:20;;;;;;;;;;;;;;;;;;5101297;28;19965;-71
2024/01/11 01:55:46;;;;;;;;;;;;;;;;;;5092884;28;19978;-71
2024/01/11 01:58:12;;;;;;;;;;;;;;;;;;5092520;28;19920;-71
2024/01/11 02:00:41;;;;;;;;;;;;;;;;;;5107584;28;20377;-71
2024/01/11 02:03:07;;;;;;;;;;;;;;;;;;5112043;28;19945;-71
2024/01/11 02:05:33;;;;;;;;;;;;;;;;;;5091494;28;19973;-71
2024/01/11 02:07:59;;;;;;;;;;;;;;;;;;5092750;28;19924;-71
2024/01/11 02:10:27;;;;;;;;;;;;;;;;;;5093748;28;19920;-71
2024/01/11 02:12:53;;;;;;;;;;;;;;;;;;5092489;28;20014;-71
2024/01/11 02:15:19;;;;;;;;;;;;;;;;;;5092552;28;19973;-71
2024/01/11 02:17:46;;;;;;;;;;;;;;;;;;5092259;28;19969;-72
2024/01/11 02:20:12;;;;;;;;;;;;;;;;;;5091945;28;19924;-71
2024/01/11 02:22:38;;;;;;;;;;;;;;;;;;5098567;28;19920;-71
2024/01/11 02:25:04;;;;;;;;;;;;;;;;;;5092322;28;19924;-70
2024/01/11 02:27:31;;;;;;;;;;;;;;;;;;5092486;28;20446;-71
2024/01/11 02:29:57;;;;;;;;;;;;;;;;;;5092181;28;20088;-72
2024/01/11 02:32:23;;;;;;;;;;;;;;;;;;5092241;28;19976;-72
2024/01/11 02:34:49;;;;;;;;;;;;;;;;;;5091929;28;19980;-72
2024/01/11 02:37:15;;;;;;;;;;;;;;;;;;5092345;28;19924;-72
2024/01/11 02:39:42;;;;;;;;;;;;;;;;;;5091007;28;19923;-71
2024/01/11 02:42:08;;;;;;;;;;;;;;;;;;5092224;28;19974;-71
2024/01/11 02:44:35;;;;;;;;;;;;;;;;;;5092172;28;19974;-73
2024/01/11 02:47:01;;;;;;;;;;;;;;;;;;5092104;28;20284;-73
2024/01/11 02:49:27;;;;;;;;;;;;;;;;;;5091903;28;19920;-72
2024/01/11 02:51:53;;;;;;;;;;;;;;;;;;5092015;28;20430;-73
2024/01/11 02:54:20;;;;;;;;;;;;;;;;;;5090865;28;19935;-72
2024/01/11 02:56:46;;;;;;;;;;;;;;;;;;5092889;28;19982;-72
2024/01/11 02:59:12;;;;;;;;;;;;;;;;;;5110829;28;19969;-70
2024/01/11 03:01:38;;;;;;;;;;;;;;;;;;5098597;28;19973;-71
2024/01/11 03:04:05;;;;;;;;;;;;;;;;;;5091839;28;19973;-71
2024/01/11 03:06:31;;;;;;;;;;;;;;;;;;5092163;28;19924;-72
2024/01/11 03:08:57;;;;;;;;;;;;;;;;;;5091713;28;19928;-72
2024/01/11 03:11:23;;;;;;;;;;;;;;;;;;5091976;28;19924;-71
2024/01/11 03:13:49;;;;;;;;;;;;;;;;;;5090279;28;20427;-71
2024/01/11 03:16:16;;;;;;;;;;;;;;;;;;5092841;28;20344;-72
2024/01/11 03:18:42;;;;;;;;;;;;;;;;;;5102637;28;19985;-71
2024/01/11 03:21:08;;;;;;;;;;;;;;;;;;5091908;28;19920;-71
2024/01/11 03:23:34;;;;;;;;;;;;;;;;;;5091626;28;19920;-71
2024/01/11 03:26:01;;;;;;;;;;;;;;;;;;5091676;28;19924;-71
2024/01/11 03:28:27;;;;;;;;;;;;;;;;;;5091643;28;19946;-70
2024/01/11 03:30:53;;;;;;;;;;;;;;;;;;5090305;28;19929;-71
2024/01/11 03:33:19;;;;;;;;;;;;;;;;;;5094741;28;19920;-71
2024/01/11 03:35:46;;;;;;;;;;;;;;;;;;5095649;28;20444;-71
2024/01/11 03:38:11;;;;;;;;;;;;;;;;;;5098809;28;19942;-70
2024/01/11 03:40:38;;;;;;;;;;;;;;;;;;5116038;28;20428;-71
2024/01/11 03:43:04;;;;;;;;;;;;;;;;;;5115711;28;19933;-71
2024/01/11 03:45:30;;;;;;;;;;;;;;;;;;5115916;28;19963;-69
2024/01/11 03:47:56;;;;;;;;;;;;;;;;;;5102525;28;20366;-69
2024/01/11 03:50:23;;;;;;;;;;;;;;;;;;5115761;28;20585;-70
2024/01/11 03:52:49;;;;;;;;;;;;;;;;;;5115793;28;19920;-69
2024/01/11 03:55:15;;;;;;;;;;;;;;;;;;5115766;28;19920;-70
2024/01/11 03:57:42;;;;;;;;;;;;;;;;;;5115314;28;19919;-70
2024/01/11 04:00:09;;;;;;;;;;;;;;;;;;5115248;28;19920;-70
2024/01/11 04:02:35;;;;;;;;;;;;;;;;;;5115660;28;20465;-69
2024/01/11 04:05:01;;;;;;;;;;;;;;;;;;5098781;28;20012;-69
2024/01/11 04:07:28;;;;;;;;;;;;;;;;;;5095094;28;20331;-71
2024/01/11 04:09:54;;;;;;;;;;;;;;;;;;5112124;28;19996;-71
2024/01/11 04:12:20;;;;;;;;;;;;;;;;;;5115365;28;19981;-70
2024/01/11 04:14:46;;;;;;;;;;;;;;;;;;5115189;28;19976;-71
2024/01/11 04:17:13;;;;;;;;;;;;;;;;;;5106562;28;19981;-72
2024/01/11 04:19:39;;;;;;;;;;;;;;;;;;5093310;28;19919;-71
2024/01/11 04:22:05;;;;;;;;;;;;;;;;;;5094819;28;19924;-70
2024/01/11 04:24:31;;;;;;;;;;;;;;;;;;5110692;28;19977;-70
2024/01/11 04:26:58;;;;;;;;;;;;;;;;;;5094687;28;19924;-70
2024/01/11 04:29:24;;;;;;;;;;;;;;;;;;5094443;28;19971;-70
2024/01/11 04:31:50;;;;;;;;;;;;;;;;;;5094495;28;20006;-67
2024/01/11 04:34:17;;;;;;;;;;;;;;;;;;5094374;28;20390;-68
2024/01/11 04:36:43;;;;;;;;;;;;;;;;;;5092527;28;20344;-68
2024/01/11 04:39:09;;;;;;;;;;;;;;;;;;5113091;28;20278;-70
2024/01/11 04:41:35;;;;;;;;;;;;;;;;;;5114985;28;19920;-70
2024/01/11 04:44:01;;;;;;;;;;;;;;;;;;5113625;28;19920;-70
2024/01/11 04:46:28;;;;;;;;;;;;;;;;;;5114960;28;19919;-70
2024/01/11 04:48:54;;;;;;;;;;;;;;;;;;5114472;28;19923;-69
2024/01/11 04:51:20;;;;;;;;;;;;;;;;;;5104951;28;19970;-71
2024/01/11 04:53:47;;;;;;;;;;;;;;;;;;5093101;28;19924;-70
2024/01/11 04:56:13;;;;;;;;;;;;;;;;;;5092990;28;20382;-70
2024/01/11 04:58:39;;;;;;;;;;;;;;;;;;5093791;28;20379;-70
2024/01/11 05:01:05;;;;;;;;;;;;;;;;;;5094416;28;19924;-72
2024/01/11 05:03:32;;;;;;;;;;;;;;;;;;5094111;28;19928;-72
2024/01/11 05:05:58;;;;;;;;;;;;;;;;;;5101059;28;20354;-69
2024/01/11 05:08:24;;;;;;;;;;;;;;;;;;5114092;28;20363;-72
2024/01/11 05:10:50;;;;;;;;;;;;;;;;;;5098081;28;19928;-72
2024/01/11 05:13:17;;;;;;;;;;;;;;;;;;5092529;28;19920;-72
2024/01/11 05:15:43;;;;;;;;;;;;;;;;;;5099191;28;19984;-72
2024/01/11 05:18:10;;;;;;;;;;;;;;;;;;5114331;28;19920;-71
2024/01/11 05:20:36;;;;;;;;;;;;;;;;;;5110341;28;19993;-73
2024/01/11 05:23:02;;;;;;;;;;;;;;;;;;5093786;28;20188;-70
2024/01/11 05:25:31;;;;;;;;;;;;;;;;;;5095652;28;19920;-70
2024/01/11 05:27:57;;;;;;;;;;;;;;;;;;5103686;28;19981;-71
2024/01/11 05:30:23;;;;;;;;;;;;;;;;;;5092168;28;19928;-71
2024/01/11 05:32:49;;;;;;;;;;;;;;;;;;5093479;28;19923;-71
2024/01/11 05:35:16;;;;;;;;;;;;;;;;;;5094034;28;19924;-71
2024/01/11 05:37:42;;;;;;;;;;;;;;;;;;5093624;28;20425;-71
2024/01/11 05:40:08;;;;;;;;;;;;;;;;;;5093395;28;20444;-71
2024/01/11 05:42:35;;;;;;;;;;;;;;;;;;5093436;28;20271;-68
2024/01/11 05:45:01;;;;;;;;;;;;;;;;;;5093390;28;19969;-71
2024/01/11 05:47:27;;;;;;;;;;;;;;;;;;5091987;28;19920;-71
2024/01/11 05:49:53;;;;;;;;;;;;;;;;;;5093192;28;19932;-69
2024/01/11 05:52:20;;;;;;;;;;;;;;;;;;5094466;28;19966;-69
2024/01/11 05:54:47;;;;;;;;;;;;;;;;;;5104198;28;19953;-67
2024/01/11 05:57:13;;;;;;;;;;;;;;;;;;5090188;28;19924;-70
2024/01/11 05:59:39;;;;;;;;;;;;;;;;;;5092787;28;19924;-69
2024/01/11 06:02:05;;;;;;;;;;;;;;;;;;5093182;28;19928;-70
2024/01/11 06:04:32;;;;;;;;;;;;;;;;;;5093154;28;20417;-69
2024/01/11 06:06:58;;;;;;;;;;;;;;;;;;5092887;28;20403;-71
2024/01/11 06:09:25;;;;;;;;;;;;;;;;;;5092295;28;19989;-70
2024/01/11 06:11:51;;;;;;;;;;;;;;;;;;5092729;28;19930;-70
2024/01/11 06:14:17;;;;;;;;;;;;;;;;;;5091607;28;19920;-69
2024/01/11 06:16:43;;;;;;;;;;;;;;;;;;5092718;28;19924;-69
2024/01/11 06:19:10;;;;;;;;;;;;;;;;;;5092800;28;19927;-70
2024/01/11 06:21:36;;;;;;;;;;;;;;;;;;5092728;28;19970;-70
2024/01/11 06:24:03;;;;;;;;;;;;;;;;;;5085855;28;19928;-70
2024/01/11 06:26:30;;;;;;;;;;;;;;;;;;5074022;28;19928;-70
2024/01/11 06:28:56;;;;;;;;;;;;;;;;;;5081819;28;19953;-68
2024/01/11 06:31:22;;;;;;;;;;;;;;;;;;5078694;28;19920;-69
2024/01/11 06:33:48;;;;;;;;;;;;;;;;;;5072188;28;19924;-70
2024/01/11 06:36:15;;;;;;;;;;;;;;;;;;5089780;28;19920;-69
2024/01/11 06:38:41;;;;;;;;;;;;;;;;;;5083384;28;19925;-70
2024/01/11 06:41:07;;;;;;;;;;;;;;;;;;5072324;28;19924;-70
2024/01/11 06:43:33;;;;;;;;;;;;;;;;;;5073663;28;20385;-70
2024/01/11 06:46:00;;;;;;;;;;;;;;;;;;5104448;28;19920;-69
2024/01/11 06:48:26;;;;;;;;;;;;;;;;;;5112575;28;19969;-70
2024/01/11 06:50:52;;;;;;;;;;;;;;;;;;5094118;28;19949;-71
2024/01/11 06:53:18;;;;;;;;;;;;;;;;;;5096846;28;19965;-71
2024/01/11 06:55:45;;;;;;;;;;;;;;;;;;5112346;28;19920;-70
2024/01/11 06:58:11;;;;;;;;;;;;;;;;;;5111883;28;20374;-71
2024/01/11 07:00:42;;;;;;;;;;;;;;;;;;5103733;28;19928;-69
2024/01/11 07:03:09;;;;;;;;;;;;;;;;;;5090977;28;20346;-69
2024/01/11 07:05:35;;;;;;;;;;;;;;;;;;5085838;28;19928;-69
2024/01/11 07:08:01;;;;;;;;;;;;;;;;;;5097306;28;20224;-72
2024/01/11 07:10:27;;;;;;;;;;;;;;;;;;5118373;28;19920;-70
2024/01/11 07:12:54;;;;;;;;;;;;;;;;;;5118473;28;19996;-69
2024/01/11 07:15:20;;;;;;;;;;;;;;;;;;5099015;28;19966;-70
2024/01/11 07:17:46;;;;;;;;;;;;;;;;;;5098082;28;19981;-70
2024/01/11 07:20:13;;;;;;;;;;;;;;;;;;5101951;28;19928;-70
2024/01/11 07:22:39;;;;;;;;;;;;;;;;;;5075977;28;19921;-69
2024/01/11 07:25:05;;;;;;;;;;;;;;;;;;5083210;28;19923;-69
2024/01/11 07:27:31;;;;;;;;;;;;;;;;;;5090411;28;19924;-71
2024/01/11 07:29:58;;;;;;;;;;;;;;;;;;5091618;28;19919;-69
2024/01/11 07:32:24;;;;;;;;;;;;;;;;;;5098138;28;19920;-69
2024/01/11 07:34:51;;;;;;;;;;;;;;;;;;5098172;28;20308;-70
2024/01/11 07:37:17;;;;;;;;;;;;;;;;;;5098209;28;19920;-69
2024/01/11 07:39:43;;;;;;;;;;;;;;;;;;5089426;28;19932;-70
2024/01/11 07:42:09;;;;;;;;;;;;;;;;;;5092538;28;19965;-70
2024/01/11 07:44:36;;;;;;;;;;;;;;;;;;5089946;28;19977;-69
2024/01/11 07:47:02;;;;;;;;;;;;;;;;;;5091281;28;19927;-67
2024/01/11 07:49:28;;;;;;;;;;;;;;;;;;5089894;28;19924;-67
2024/01/11 07:51:54;;;;;;;;;;;;;;;;;;5096023;28;19984;-68
2024/01/11 07:54:21;;;;;;;;;;;;;;;;;;5092600;28;20012;-69
2024/01/11 07:56:48;;;;;;;;;;;;;;;;;;5088429;28;19920;-67
2024/01/11 07:59:14;;;;;;;;;;;;;;;;;;5095548;28;19927;-67
2024/01/11 08:01:40;;;;;;;;;;;;;;;;;;5087894;28;19928;-67
2024/01/11 08:04:06;;;;;;;;;;;;;;;;;;5089740;28;20390;-67
2024/01/11 08:06:33;;;;;;;;;;;;;;;;;;5080744;28;19924;-67
2024/01/11 08:09:00;;;;;;;;;;;;;;;;;;5097621;28;20919;-67
2024/01/11 08:11:26;;;;;;;;;;;;;;;;;;5098052;28;19993;-68
2024/01/11 08:13:54;;;;;;;;;;;;;;;;;;5097132;28;19972;-68
2024/01/11 08:16:20;;;;;;;;;;;;;;;;;;5086859;28;20437;-68
2024/01/11 08:18:48;;;;;;;;;;;;;;;;;;5093685;28;19924;-69
2024/01/11 08:21:15;;;;;;;;;;;;;;;;;;5085134;28;20317;-67
2024/01/11 08:23:44;;;;;;;;;;;;;;;;;;5094316;28;20073;-69
2024/01/11 08:26:10;;;;;;;;;;;;;;;;;;5088395;28;20011;-67
2024/01/11 08:28:36;;;;;;;;;;;;;;;;;;5094086;28;20374;-68
2024/01/11 08:31:04;;;;;;;;;;;;;;;;;;5086221;28;20340;-67
2024/01/11 08:33:30;;;;;;;;;;;;;;;;;;5081022;28;19923;-68
2024/01/11 08:35:57;;;;;;;;;;;;;;;;;;5083442;28;19928;-68
2024/01/11 08:38:24;;;;;;;;;;;;;;;;;;5100399;28;20403;-69
2024/01/11 08:40:50;;;;;;;;;;;;;;;;;;5080807;28;19926;-67
2024/01/11 08:43:17;;;;;;;;;;;;;;;;;;5105666;28;20832;-68
2024/01/11 08:45:43;;;;;;;;;;;;;;;;;;5094165;28;19970;-68
2024/01/11 08:48:10;;;;;;;;;;;;;;;;;;5084269;28;19975;-68
2024/01/11 08:50:37;;;;;;;;;;;;;;;;;;5086233;28;19924;-67
2024/01/11 08:53:03;;;;;;;;;;;;;;;;;;5093986;28;19928;-67
2024/01/11 08:55:29;;;;;;;;;;;;;;;;;;5091164;28;19973;-68
2024/01/11 08:57:56;;;;;;;;;;;;;;;;;;5093367;28;19928;-68
2024/01/11 09:00:22;;;;;;;;;;;;;;;;;;5091430;28;19920;-67
2024/01/11 09:02:49;;;;;;;;;;;;;;;;;;5093457;28;20390;-69
2024/01/11 09:05:15;;;;;;;;;;;;;;;;;;5080081;28;19960;-70
2024/01/11 09:07:42;;;;;;;;;;;;;;;;;;5081714;28;19947;-68
2024/01/11 09:10:09;;;;;;;;;;;;;;;;;;5087118;28;19981;-68
2024/01/11 09:12:36;;;;;;;;;;;;;;;;;;5083124;28;20043;-67
2024/01/11 09:15:02;;;;;;;;;;;;;;;;;;5088202;28;19927;-69
2024/01/11 09:17:28;;;;;;;;;;;;;;;;;;5071855;28;19982;-69
2024/01/11 09:19:54;;;;;;;;;;;;;;;;;;5082060;28;19920;-68
2024/01/11 09:22:21;;;;;;;;;;;;;;;;;;5091427;28;19924;-70
2024/01/11 09:24:47;;;;;;;;;;;;;;;;;;5093938;28;19924;-70
2024/01/11 09:27:13;;;;;;;;;;;;;;;;;;5093316;28;19977;-69
2024/01/11 09:29:39;;;;;;;;;;;;;;;;;;5081308;28;19973;-70
2024/01/11 09:32:06;;;;;;;;;;;;;;;;;;5085386;28;19924;-70
2024/01/11 09:34:32;;;;;;;;;;;;;;;;;;5089739;28;20287;-69
2024/01/11 09:36:59;;;;;;;;;;;;;;;;;;5102960;28;19964;-70
2024/01/11 09:39:25;;;;;;;;;;;;;;;;;;5081111;28;19967;-70
2024/01/11 09:41:51;;;;;;;;;;;;;;;;;;5085744;28;19931;-70
2024/01/11 09:44:18;;;;;;;;;;;;;;;;;;5081164;28;19921;-69
2024/01/11 09:46:44;;;;;;;;;;;;;;;;;;5091676;28;19946;-69
2024/01/11 09:49:10;;;;;;;;;;;;;;;;;;5092865;28;19926;-69
2024/01/11 09:51:36;;;;;;;;;;;;;;;;;;5089482;28;19989;-71
2024/01/11 09:54:03;;;;;;;;;;;;;;;;;;5092915;28;19920;-69
2024/01/11 09:56:29;;;;;;;;;;;;;;;;;;5081620;28;19920;-69
2024/01/11 09:58:55;;;;;;;;;;;;;;;;;;5089657;28;19973;-69
2024/01/11 10:01:21;;;;;;;;;;;;;;;;;;5085074;28;19927;-70
2024/01/11 10:03:48;;;;;;;;;;;;;;;;;;5082736;28;20007;-70
2024/01/11 10:06:15;;;;;;;;;;;;;;;;;;5087193;28;19946;-69
2024/01/11 10:08:41;;;;;;;;;;;;;;;;;;5087201;28;19924;-69
2024/01/11 10:11:08;;;;;;;;;;;;;;;;;;5087615;28;19920;-68
2024/01/11 10:13:35;;;;;;;;;;;;;;;;;;5087611;28;19973;-70
2024/01/11 10:16:02;;;;;;;;;;;;;;;;;;5099861;28;19946;-69
2024/01/11 10:18:28;;;;;;;;;;;;;;;;;;5092309;28;19920;-69
2024/01/11 10:20:54;;;;;;;;;;;;;;;;;;5074418;28;19932;-70
2024/01/11 10:23:20;;;;;;;;;;;;;;;;;;5079497;28;19923;-69
2024/01/11 10:25:47;;;;;;;;;;;;;;;;;;5092306;28;19924;-69
2024/01/11 10:28:13;;;;;;;;;;;;;;;;;;5084088;28;20447;-70
2024/01/11 10:30:40;;;;;;;;;;;;;;;;;;5090477;28;20336;-69
2024/01/11 10:33:07;;;;;;;;;;;;;;;;;;5078270;28;20350;-69
2024/01/11 10:35:33;;;;;;;;;;;;;;;;;;5092329;28;19920;-70
2024/01/11 10:37:59;;;;;;;;;;;;;;;;;;5089501;28;19965;-69
2024/01/11 10:40:25;;;;;;;;;;;;;;;;;;5081702;28;20424;-70
2024/01/11 10:42:52;;;;;;;;;;;;;;;;;;5077784;28;19919;-71
2024/01/11 10:45:18;;;;;;;;;;;;;;;;;;5078812;28;19963;-69
2024/01/11 10:47:44;;;;;;;;;;;;;;;;;;5093430;28;19924;-69
2024/01/11 10:50:11;;;;;;;;;;;;;;;;;;5091851;28;19977;-70
2024/01/11 10:52:37;;;;;;;;;;;;;;;;;;5078780;28;20318;-69
2024/01/11 10:55:03;;;;;;;;;;;;;;;;;;5091669;28;20271;-69
2024/01/11 10:57:30;;;;;;;;;;;;;;;;;;5094912;28;19920;-69
2024/01/11 10:59:57;;;;;;;;;;;;;;;;;;5090884;28;19931;-68
2024/01/11 11:02:23;;;;;;;;;;;;;;;;;;5080069;28;19920;-69
2024/01/11 11:04:49;;;;;;;;;;;;;;;;;;5091142;28;19932;-70
2024/01/11 11:07:15;;;;;;;;;;;;;;;;;;5088035;28;20431;-68
2024/01/11 11:09:43;;;;;;;;;;;;;;;;;;5089671;28;20440;-69
2024/01/11 11:12:10;;;;;;;;;;;;;;;;;;5091913;28;19927;-69
2024/01/11 11:14:36;;;;;;;;;;;;;;;;;;5078072;28;19924;-71
2024/01/11 11:17:02;;;;;;;;;;;;;;;;;;5077430;28;19923;-68
2024/01/11 11:19:28;;;;;;;;;;;;;;;;;;5083184;28;19977;-69
2024/01/11 11:21:55;;;;;;;;;;;;;;;;;;5083420;28;19924;-69
2024/01/11 11:24:21;;;;;;;;;;;;;;;;;;5086526;28;19924;-68
2024/01/11 11:26:47;;;;;;;;;;;;;;;;;;5090385;28;19920;-68
2024/01/11 11:29:13;;;;;;;;;;;;;;;;;;5084648;28;19932;-68
2024/01/11 11:31:40;;;;;;;;;;;;;;;;;;5081267;28;20291;-69
2024/01/11 11:34:06;;;;;;;;;;;;;;;;;;5082147;28;19924;-69
2024/01/11 11:36:32;;;;;;;;;;;;;;;;;;5083731;28;19965;-68
2024/01/11 11:39:00;;;;;;;;;;;;;;;;;;5087905;28;19928;-68
2024/01/11 11:41:26;;;;;;;;;;;;;;;;;;5086887;28;19928;-68
2024/01/11 11:43:53;;;;;;;;;;;;;;;;;;5080868;28;19965;-68
2024/01/11 11:46:19;;;;;;;;;;;;;;;;;;5090056;28;20370;-68
2024/01/11 11:48:46;;;;;;;;;;;;;;;;;;5078677;28;19966;-69
2024/01/11 11:51:12;;;;;;;;;;;;;;;;;;5088878;28;19965;-69
2024/01/11 11:53:38;;;;;;;;;;;;;;;;;;5091576;28;19973;-68
2024/01/11 11:56:04;;;;;;;;;;;;;;;;;;5092137;28;19931;-68
2024/01/11 11:58:30;;;;;;;;;;;;;;;;;;5089393;28;19977;-69
2024/01/11 12:00:57;;;;;;;;;;;;;;;;;;5100071;28;19924;-71
2024/01/11 12:03:23;;;;;;;;;;;;;;;;;;5092811;28;19920;-69
2024/01/11 12:05:49;;;;;;;;;;;;;;;;;;5096476;28;19928;-69
2024/01/11 12:08:15;;;;;;;;;;;;;;;;;;5086781;28;19924;-70
2024/01/11 12:10:42;;;;;;;;;;;;;;;;;;5092493;28;20435;-69
2024/01/11 12:13:08;;;;;;;;;;;;;;;;;;5093054;28;20431;-69
2024/01/11 12:15:34;;;;;;;;;;;;;;;;;;5090991;28;19973;-69
2024/01/11 12:18:00;;;;;;;;;;;;;;;;;;5094861;28;19930;-69
2024/01/11 12:20:27;;;;;;;;;;;;;;;;;;5090195;28;19920;-69
2024/01/11 12:22:53;;;;;;;;;;;;;;;;;;5088750;28;19920;-69
2024/01/11 12:25:20;;;;;;;;;;;;;;;;;;5085618;28;19920;-69
2024/01/11 12:27:46;;;;;;;;;;;;;;;;;;5094730;28;19984;-70
2024/01/11 12:30:16;;;;;;;;;;;;;;;;;;5096102;28;19977;-69
2024/01/11 12:32:42;;;;;;;;;;;;;;;;;;5096417;28;20386;-69
2024/01/11 12:35:09;;;;;;;;;;;;;;;;;;5092057;28;20332;-68
2024/01/11 12:37:35;;;;;;;;;;;;;;;;;;5090824;28;19954;-69
2024/01/11 12:40:01;;;;;;;;;;;;;;;;;;5088546;28;19977;-69
2024/01/11 12:42:27;;;;;;;;;;;;;;;;;;5090447;28;19973;-69
2024/01/11 12:44:54;;;;;;;;;;;;;;;;;;5109885;28;19927;-68
2024/01/11 12:47:20;;;;;;;;;;;;;;;;;;5112997;28;19924;-68
2024/01/11 12:49:46;;;;;;;;;;;;;;;;;;5114449;28;19980;-70
2024/01/11 12:52:13;;;;;;;;;;;;;;;;;;5114395;28;19920;-68
2024/01/11 12:54:39;;;;;;;;;;;;;;;;;;5109588;28;20466;-68
2024/01/11 12:57:05;;;;;;;;;;;;;;;;;;5108596;28;20489;-69
2024/01/11 12:59:31;;;;;;;;;;;;;;;;;;5089051;28;19920;-68
2024/01/11 13:01:59;;;;;;;;;;;;;;;;;;5089814;28;19925;-69
2024/01/11 13:04:25;;;;;;;;;;;;;;;;;;5094063;28;19958;-69
2024/01/11 13:06:53;;;;;;;;;;;;;;;;;;5090959;28;19920;-68
2024/01/11 13:09:19;;;;;;;;;;;;;;;;;;5089310;28;19920;-68
2024/01/11 13:11:46;;;;;;;;;;;;;;;;;;5096746;28;19930;-69
2024/01/11 13:14:18;;;;;;;;;;;;;;;;;;5093507;28;19920;-67
2024/01/11 13:16:45;;;;;;;;;;;;;;;;;;5093930;28;20101;-68
2024/01/11 13:19:11;;;;;;;;;;;;;;;;;;5093884;28;20305;-69
2024/01/11 13:21:37;;;;;;;;;;;;;;;;;;5093496;28;19989;-68
2024/01/11 13:24:04;;;;;;;;;;;;;;;;;;5093059;28;19926;-68
2024/01/11 13:26:30;;;;;;;;;;;;;;;;;;5084445;28;20375;-68
2024/01/11 13:28:56;;;;;;;;;;;;;;;;;;5072836;28;20345;-68
2024/01/11 13:31:23;;;;;;;;;;;;;;;;;;5073369;28;19974;-68
2024/01/11 13:33:49;;;;;;;;;;;;;;;;;;5073159;28;20003;-68
2024/01/11 13:36:16;;;;;;;;;;;;;;;;;;5073187;28;20015;-69
2024/01/11 13:38:42;;;;;;;;;;;;;;;;;;5073120;28;19921;-68
2024/01/11 13:41:08;;;;;;;;;;;;;;;;;;5073196;28;19920;-69
2024/01/11 13:43:35;;;;;;;;;;;;;;;;;;5077597;28;20018;-68
2024/01/11 13:46:04;;;;;;;;;;;;;;;;;;5072634;28;19934;-68
2024/01/11 13:48:31;;;;;;;;;;;;;;;;;;5072783;28;19939;-68
2024/01/11 13:50:57;;;;;;;;;;;;;;;;;;5079673;28;20274;-68
2024/01/11 13:53:23;;;;;;;;;;;;;;;;;;5093013;28;19923;-67
2024/01/11 13:55:51;;;;;;;;;;;;;;;;;;5092954;28;19920;-68
2024/01/11 13:58:17;;;;;;;;;;;;;;;;;;5089295;28;19928;-69
2024/01/11 14:00:44;;;;;;;;;;;;;;;;;;5088714;28;20390;-67
2024/01/11 14:03:10;;;;;;;;;;;;;;;;;;5072440;28;20373;-68
2024/01/11 14:05:36;;;;;;;;;;;;;;;;;;5096491;28;19923;-68
2024/01/11 14:08:05;;;;;;;;;;;;;;;;;;5102432;28;19927;-68
2024/01/11 14:10:32;;;;;;;;;;;;;;;;;;5088168;28;19928;-68
2024/01/11 14:12:58;;;;;;;;;;;;;;;;;;5082526;28;19941;-67
2024/01/11 14:15:25;;;;;;;;;;;;;;;;;;5078096;28;19990;-67
2024/01/11 14:17:51;;;;;;;;;;;;;;;;;;5084487;28;19927;-68
2024/01/11 14:20:17;;;;;;;;;;;;;;;;;;5086123;28;19924;-69
2024/01/11 14:22:47;;;;;;;;;;;;;;;;;;5085897;28;19974;-68
2024/01/11 14:25:13;;;;;;;;;;;;;;;;;;5088430;28;19920;-67
2024/01/11 14:27:40;;;;;;;;;;;;;;;;;;5087645;28;19935;-67
2024/01/11 14:30:07;;;;;;;;;;;;;;;;;;5091970;28;19967;-68
2024/01/11 14:32:33;;;;;;;;;;;;;;;;;;5092094;28;19920;-68
2024/01/11 14:35:03;;;;;;;;;;;;;;;;;;5075526;28;19924;-67
2024/01/11 14:37:29;;;;;;;;;;;;;;;;;;5092133;28;19927;-68
2024/01/11 14:39:56;;;;;;;;;;;;;;;;;;5092049;28;19924;-69
2024/01/11 14:42:22;;;;;;;;;;;;;;;;;;5092136;28;19923;-67
2024/01/11 14:44:48;;;;;;;;;;;;;;;;;;5083517;28;20451;-68
2024/01/11 14:47:15;;;;;;;;;;;;;;;;;;5091971;28;20367;-67
2024/01/11 14:49:41;;;;;;;;;;;;;;;;;;5086143;28;20367;-67
2024/01/11 14:52:08;;;;;;;;;;;;;;;;;;5088391;28;20374;-68
2024/01/11 14:54:34;;;;;;;;;;;;;;;;;;5094611;28;20696;-68
2024/01/11 14:57:00;;;;;;;;;;;;;;;;;;5105550;28;19979;-67
2024/01/11 14:59:26;;;;;;;;;;;;;;;;;;5087847;28;19927;-67
2024/01/11 15:01:53;;;;;;;;;;;;;;;;;;5090782;28;19973;-66
2024/01/11 15:04:20;;;;;;;;;;;;;;;;;;5088146;28;19974;-67
2024/01/11 15:06:46;;;;;;;;;;;;;;;;;;5097143;28;19928;-67
2024/01/11 15:09:13;;;;;;;;;;;;;;;;;;5075881;28;19978;-69
2024/01/11 15:11:39;;;;;;;;;;;;;;;;;;5080687;28;20286;-69
2024/01/11 15:14:05;;;;;;;;;;;;;;;;;;5091680;28;20333;-69
2024/01/11 15:16:32;;;;;;;;;;;;;;;;;;5091667;28;19983;-69
2024/01/11 15:18:58;;;;;;;;;;;;;;;;;;5079642;28;19923;-69
2024/01/11 15:21:24;;;;;;;;;;;;;;;;;;5091757;28;19920;-69
2024/01/11 15:23:50;;;;;;;;;;;;;;;;;;5090020;28;19924;-69
2024/01/11 15:26:17;;;;;;;;;;;;;;;;;;5098154;28;19919;-71
2024/01/11 15:28:43;;;;;;;;;;;;;;;;;;5103359;28;20359;-70
2024/01/11 15:31:09;;;;;;;;;;;;;;;;;;5087186;28;19927;-69
2024/01/11 15:33:35;;;;;;;;;;;;;;;;;;5093185;28;19977;-69
2024/01/11 15:36:02;;;;;;;;;;;;;;;;;;5085131;28;19972;-70
2024/01/11 15:38:28;;;;;;;;;;;;;;;;;;5088746;28;19973;-69
2024/01/11 15:40:54;;;;;;;;;;;;;;;;;;5092199;28;20401;-69
2024/01/11 15:43:20;;;;;;;;;;;;;;;;;;5083161;28;20499;-69
2024/01/11 15:45:47;;;;;;;;;;;;;;;;;;5086283;28;20340;-69
2024/01/11 15:48:13;;;;;;;;;;;;;;;;;;5082125;28;20296;-69
2024/01/11 15:50:39;;;;;;;;;;;;;;;;;;5083004;28;19921;-69
2024/01/11 15:53:06;;;;;;;;;;;;;;;;;;5082738;28;19924;-69
2024/01/11 15:55:32;;;;;;;;;;;;;;;;;;5095490;28;19983;-69
2024/01/11 15:58:00;;;;;;;;;;;;;;;;;;5095017;28;19920;-69
2024/01/11 16:00:26;;;;;;;;;;;;;;;;;;5094874;28;20030;-70
2024/01/11 16:02:55;;;;;;;;;;;;;;;;;;5089327;28;20527;-69
2024/01/11 16:05:22;;;;;;;;;;;;;;;;;;5087614;28;19924;-69
2024/01/11 16:07:48;;;;;;;;;;;;;;;;;;5087771;28;20370;-68
2024/01/11 16:10:14;;;;;;;;;;;;;;;;;;5088256;28;20386;-68
2024/01/11 16:12:40;;;;;;;;;;;;;;;;;;5094612;28;20347;-69
2024/01/11 16:15:06;;;;;;;;;;;;;;;;;;5094832;28;19981;-69
2024/01/11 16:17:33;;;;;;;;;;;;;;;;;;5094735;28;19923;-68
2024/01/11 16:19:59;;;;;;;;;;;;;;;;;;5094628;28;20004;-68
2024/01/11 16:22:25;;;;;;;;;;;;;;;;;;5093581;28;20362;-68
2024/01/11 16:24:52;;;;;;;;;;;;;;;;;;5091623;28;20283;-69
2024/01/11 16:27:18;;;;;;;;;;;;;;;;;;5081737;28;19928;-69
2024/01/11 16:29:44;;;;;;;;;;;;;;;;;;5085310;28;19928;-69
2024/01/11 16:32:12;;;;;;;;;;;;;;;;;;5094213;28;19972;-68
2024/01/11 16:34:38;;;;;;;;;;;;;;;;;;5093082;28;19920;-68
2024/01/11 16:37:04;;;;;;;;;;;;;;;;;;5093832;28;20395;-69
2024/01/11 16:39:31;;;;;;;;;;;;;;;;;;5092749;28;19923;-69